Time;durP1;ratioP1;P1;durP2;ratioP2;P2;SDS_P1;SDS_P2;PMS_P1;PMS_P2;Temp;Humidity;BMP_temperature;BMP_pressure;BME280_temperature;BME280_humidity;BME280_pressure;Samples;Min_cycle;Max_cycle;Signal;HPM_P1;HPM_P2
2023/01/01 00:00:05;;;;;;;;;;;;;;;;;;7368476;19;1283;-66
2023/01/01 00:02:38;;;;;;;;;;;;;;;;;;7367639;19;1849;-65
2023/01/01 00:05:06;;;;;;;;;;;;;;;;;;7369084;19;834;-66
2023/01/01 00:07:34;;;;;;;;;;;;;;;;;;7371845;19;1845;-66
2023/01/01 00:12:43;;;;;;;;;;;;;;;;;;7369585;19;775;-65
2023/01/01 00:15:11;;;;;;;;;;;;;;;;;;7367598;19;796;-66
2023/01/01 00:17:39;;;;;;;;;;;;;;;;;;7371400;19;2345;-66
2023/01/01 00:20:07;;;;;;;;;;;;;;;;;;7368199;19;1090;-66
2023/01/01 00:22:35;;;;;;;;;;;;;;;;;;7367410;19;1829;-65
2023/01/01 00:25:03;;;;;;;;;;;;;;;;;;7372225;19;1827;-65
2023/01/01 00:27:32;;;;;;;;;;;;;;;;;;7372617;19;1870;-66
2023/01/01 00:30:00;;;;;;;;;;;;;;;;;;7367478;19;1361;-66
2023/01/01 00:32:28;;;;;;;;;;;;;;;;;;7370795;19;1845;-66
2023/01/01 00:34:56;;;;;;;;;;;;;;;;;;7368554;19;807;-66
2023/01/01 00:37:24;;;;;;;;;;;;;;;;;;7367669;19;803;-66
2023/01/01 00:39:52;;;;;;;;;;;;;;;;;;7366820;19;1341;-66
2023/01/01 00:42:20;;;;;;;;;;;;;;;;;;7367324;19;1837;-66
2023/01/01 00:44:49;;;;;;;;;;;;;;;;;;7368532;19;846;-66
2023/01/01 00:47:17;;;;;;;;;;;;;;;;;;7367976;19;808;-64
2023/01/01 00:49:45;;;;;;;;;;;;;;;;;;7367412;19;1278;-64
2023/01/01 00:52:13;;;;;;;;;;;;;;;;;;7368330;19;847;-65
2023/01/01 00:54:41;;;;;;;;;;;;;;;;;;7367632;19;860;-65
2023/01/01 00:57:09;;;;;;;;;;;;;;;;;;7367810;19;769;-65
2023/01/01 00:59:37;;;;;;;;;;;;;;;;;;7366564;19;794;-63
2023/01/01 01:02:05;;;;;;;;;;;;;;;;;;7370775;19;1865;-64
2023/01/01 01:04:34;;;;;;;;;;;;;;;;;;7367990;19;843;-64
2023/01/01 01:07:02;;;;;;;;;;;;;;;;;;7368244;19;817;-65
2023/01/01 01:09:31;;;;;;;;;;;;;;;;;;7364770;19;878;-66
2023/01/01 01:11:59;;;;;;;;;;;;;;;;;;7363958;19;1353;-65
2023/01/01 01:14:27;;;;;;;;;;;;;;;;;;7367395;19;833;-65
2023/01/01 01:16:55;;;;;;;;;;;;;;;;;;7366729;19;827;-65
2023/01/01 01:19:24;;;;;;;;;;;;;;;;;;7366236;19;827;-65
2023/01/01 01:21:53;;;;;;;;;;;;;;;;;;7364026;19;1349;-65
2023/01/01 01:24:21;;;;;;;;;;;;;;;;;;7364096;19;1898;-65
2023/01/01 01:26:49;;;;;;;;;;;;;;;;;;7366301;19;866;-65
2023/01/01 01:29:17;;;;;;;;;;;;;;;;;;7366061;19;803;-65
2023/01/01 01:31:46;;;;;;;;;;;;;;;;;;7364169;19;1859;-66
2023/01/01 01:34:14;;;;;;;;;;;;;;;;;;7365216;19;797;-65
2023/01/01 01:36:42;;;;;;;;;;;;;;;;;;7366076;19;862;-65
2023/01/01 01:39:10;;;;;;;;;;;;;;;;;;7365004;19;899;-65
2023/01/01 01:41:39;;;;;;;;;;;;;;;;;;7366178;19;1898;-65
2023/01/01 01:44:07;;;;;;;;;;;;;;;;;;7363796;19;1857;-65
2023/01/01 01:46:35;;;;;;;;;;;;;;;;;;7364386;19;885;-64
2023/01/01 01:49:03;;;;;;;;;;;;;;;;;;7364852;19;858;-66
2023/01/01 01:51:31;;;;;;;;;;;;;;;;;;7362875;19;1297;-65
2023/01/01 01:53:59;;;;;;;;;;;;;;;;;;7365615;19;1836;-65
2023/01/01 01:56:28;;;;;;;;;;;;;;;;;;7365865;19;798;-64
2023/01/01 01:58:56;;;;;;;;;;;;;;;;;;7365322;19;878;-65
2023/01/01 02:01:24;;;;;;;;;;;;;;;;;;7365097;19;1869;-65
2023/01/01 02:03:52;;;;;;;;;;;;;;;;;;7363962;19;1865;-66
2023/01/01 02:06:21;;;;;;;;;;;;;;;;;;7364891;19;856;-65
2023/01/01 02:08:49;;;;;;;;;;;;;;;;;;7364506;19;772;-65
2023/01/01 02:11:17;;;;;;;;;;;;;;;;;;7362949;19;1241;-65
2023/01/01 02:13:45;;;;;;;;;;;;;;;;;;7364867;19;786;-66
2023/01/01 02:16:13;;;;;;;;;;;;;;;;;;7364721;19;818;-65
2023/01/01 02:18:41;;;;;;;;;;;;;;;;;;7364131;19;867;-66
2023/01/01 02:21:09;;;;;;;;;;;;;;;;;;7368987;19;1239;-66
2023/01/01 02:23:38;;;;;;;;;;;;;;;;;;7370095;19;1842;-67
2023/01/01 02:26:06;;;;;;;;;;;;;;;;;;7370685;19;810;-65
2023/01/01 02:28:34;;;;;;;;;;;;;;;;;;7369955;19;836;-64
2023/01/01 02:31:02;;;;;;;;;;;;;;;;;;7368844;19;1940;-66
2023/01/01 02:33:30;;;;;;;;;;;;;;;;;;7370393;19;827;-63
2023/01/01 02:35:59;;;;;;;;;;;;;;;;;;7371067;19;790;-66
2023/01/01 02:38:27;;;;;;;;;;;;;;;;;;7370226;19;1889;-64
2023/01/01 02:40:55;;;;;;;;;;;;;;;;;;7373375;19;1905;-65
2023/01/01 02:43:23;;;;;;;;;;;;;;;;;;7370332;19;1845;-65
2023/01/01 02:45:51;;;;;;;;;;;;;;;;;;7369476;19;810;-64
2023/01/01 02:48:20;;;;;;;;;;;;;;;;;;7370391;19;807;-65
2023/01/01 02:50:48;;;;;;;;;;;;;;;;;;7370139;19;1329;-64
2023/01/01 02:53:16;;;;;;;;;;;;;;;;;;7369671;19;792;-64
2023/01/01 02:55:44;;;;;;;;;;;;;;;;;;7370957;19;1841;-65
2023/01/01 03:00:53;;;;;;;;;;;;;;;;;;7371286;19;1689;-65
2023/01/01 03:03:21;;;;;;;;;;;;;;;;;;7372544;19;1853;-64
2023/01/01 03:08:29;;;;;;;;;;;;;;;;;;7369485;19;1059;-65
2023/01/01 03:10:57;;;;;;;;;;;;;;;;;;7368561;19;1330;-64
2023/01/01 03:13:25;;;;;;;;;;;;;;;;;;7370548;19;858;-66
2023/01/01 03:15:54;;;;;;;;;;;;;;;;;;7371684;19;1898;-66
2023/01/01 03:18:22;;;;;;;;;;;;;;;;;;7369350;19;867;-66
2023/01/01 03:20:52;;;;;;;;;;;;;;;;;;7368838;19;1291;-65
2023/01/01 03:23:20;;;;;;;;;;;;;;;;;;7369187;19;1831;-65
2023/01/01 03:25:48;;;;;;;;;;;;;;;;;;7370102;19;850;-65
2023/01/01 03:28:16;;;;;;;;;;;;;;;;;;7373298;19;1910;-64
2023/01/01 03:30:45;;;;;;;;;;;;;;;;;;7368687;19;1343;-65
2023/01/01 03:33:13;;;;;;;;;;;;;;;;;;7367809;19;809;-65
2023/01/01 03:35:41;;;;;;;;;;;;;;;;;;7369498;19;771;-66
2023/01/01 03:38:09;;;;;;;;;;;;;;;;;;7370582;19;1830;-64
2023/01/01 03:40:37;;;;;;;;;;;;;;;;;;7368861;19;1270;-65
2023/01/01 03:43:05;;;;;;;;;;;;;;;;;;7369648;19;1842;-65
2023/01/01 03:45:33;;;;;;;;;;;;;;;;;;7369150;19;815;-64
2023/01/01 03:48:04;;;;;;;;;;;;;;;;;;7367599;19;870;-65
2023/01/01 03:50:32;;;;;;;;;;;;;;;;;;7367193;19;1310;-67
2023/01/01 03:53:00;;;;;;;;;;;;;;;;;;7368529;19;867;-63
2023/01/01 03:55:28;;;;;;;;;;;;;;;;;;7368327;19;819;-65
2023/01/01 03:57:56;;;;;;;;;;;;;;;;;;7370649;19;1821;-65
2023/01/01 04:00:26;;;;;;;;;;;;;;;;;;7367971;19;1268;-64
2023/01/01 04:02:55;;;;;;;;;;;;;;;;;;7368187;19;1850;-63
2023/01/01 04:05:23;;;;;;;;;;;;;;;;;;7366860;19;804;-64
2023/01/01 04:07:51;;;;;;;;;;;;;;;;;;7367887;19;1865;-65
2023/01/01 04:10:19;;;;;;;;;;;;;;;;;;7368593;19;1204;-64
2023/01/01 04:12:47;;;;;;;;;;;;;;;;;;7369178;19;807;-63
2023/01/01 04:15:15;;;;;;;;;;;;;;;;;;7368652;19;763;-63
2023/01/01 04:17:43;;;;;;;;;;;;;;;;;;7367091;19;813;-65
2023/01/01 04:20:11;;;;;;;;;;;;;;;;;;7366807;19;1354;-65
2023/01/01 04:22:40;;;;;;;;;;;;;;;;;;7367312;19;830;-64
2023/01/01 04:25:08;;;;;;;;;;;;;;;;;;7364026;19;1829;-65
2023/01/01 04:27:36;;;;;;;;;;;;;;;;;;7370864;19;1880;-64
2023/01/01 04:30:04;;;;;;;;;;;;;;;;;;7367289;19;1274;-65
2023/01/01 04:32:33;;;;;;;;;;;;;;;;;;7368819;19;775;-64
2023/01/01 04:35:01;;;;;;;;;;;;;;;;;;7368218;19;806;-65
2023/01/01 04:37:29;;;;;;;;;;;;;;;;;;7368143;19;814;-65
2023/01/01 04:39:57;;;;;;;;;;;;;;;;;;7366511;19;1325;-65
2023/01/01 04:42:25;;;;;;;;;;;;;;;;;;7366961;19;858;-65
2023/01/01 04:44:54;;;;;;;;;;;;;;;;;;7362172;19;1846;-65
2023/01/01 04:47:22;;;;;;;;;;;;;;;;;;7366814;19;792;-65
2023/01/01 04:49:50;;;;;;;;;;;;;;;;;;7365224;19;1330;-65
2023/01/01 04:52:18;;;;;;;;;;;;;;;;;;7366644;19;794;-65
2023/01/01 04:54:46;;;;;;;;;;;;;;;;;;7367245;19;868;-66
2023/01/01 04:57:15;;;;;;;;;;;;;;;;;;7367070;19;1788;-65
2023/01/01 04:59:43;;;;;;;;;;;;;;;;;;7366575;19;1346;-66
2023/01/01 05:02:11;;;;;;;;;;;;;;;;;;7367352;19;806;-66
2023/01/01 05:04:39;;;;;;;;;;;;;;;;;;7365505;19;1830;-67
2023/01/01 05:07:07;;;;;;;;;;;;;;;;;;7366585;19;776;-66
2023/01/01 05:09:35;;;;;;;;;;;;;;;;;;7365935;19;865;-66
2023/01/01 05:12:03;;;;;;;;;;;;;;;;;;7363858;19;1255;-66
2023/01/01 05:14:32;;;;;;;;;;;;;;;;;;7368090;19;873;-65
2023/01/01 05:17:00;;;;;;;;;;;;;;;;;;7366287;19;792;-65
2023/01/01 05:19:28;;;;;;;;;;;;;;;;;;7365400;19;790;-66
2023/01/01 05:21:56;;;;;;;;;;;;;;;;;;7363798;19;1361;-66
2023/01/01 05:24:24;;;;;;;;;;;;;;;;;;7365174;19;1829;-65
2023/01/01 05:26:53;;;;;;;;;;;;;;;;;;7369215;19;1838;-65
2023/01/01 05:29:23;;;;;;;;;;;;;;;;;;7365547;19;902;-65
2023/01/01 05:31:52;;;;;;;;;;;;;;;;;;7363792;19;1336;-65
2023/01/01 05:34:20;;;;;;;;;;;;;;;;;;7366068;19;810;-64
2023/01/01 05:36:48;;;;;;;;;;;;;;;;;;7365352;19;850;-64
2023/01/01 05:39:16;;;;;;;;;;;;;;;;;;7365104;19;883;-64
2023/01/01 05:41:44;;;;;;;;;;;;;;;;;;7363680;19;1270;-68
2023/01/01 05:44:15;;;;;;;;;;;;;;;;;;7365079;19;1841;-65
2023/01/01 05:46:44;;;;;;;;;;;;;;;;;;7366329;19;709;-64
2023/01/01 05:49:12;;;;;;;;;;;;;;;;;;7364815;19;811;-64
2023/01/01 05:51:40;;;;;;;;;;;;;;;;;;7363949;19;1330;-64
2023/01/01 05:54:08;;;;;;;;;;;;;;;;;;7374889;19;1843;-64
2023/01/01 05:56:37;;;;;;;;;;;;;;;;;;7377517;19;891;-64
2023/01/01 05:59:05;;;;;;;;;;;;;;;;;;7378269;19;819;-65
2023/01/01 06:01:33;;;;;;;;;;;;;;;;;;7376831;19;1337;-64
2023/01/01 06:04:01;;;;;;;;;;;;;;;;;;7371551;19;1853;-65
2023/01/01 06:06:30;;;;;;;;;;;;;;;;;;7371382;19;851;-64
2023/01/01 06:08:58;;;;;;;;;;;;;;;;;;7370600;19;874;-65
2023/01/01 06:11:26;;;;;;;;;;;;;;;;;;7369757;19;1290;-66
2023/01/01 06:13:54;;;;;;;;;;;;;;;;;;7371575;19;845;-68
2023/01/01 06:16:22;;;;;;;;;;;;;;;;;;7370469;19;772;-64
2023/01/01 06:18:50;;;;;;;;;;;;;;;;;;7370673;19;878;-66
2023/01/01 06:21:19;;;;;;;;;;;;;;;;;;7368382;19;1395;-64
2023/01/01 06:23:47;;;;;;;;;;;;;;;;;;7370937;19;1846;-66
2023/01/01 06:26:15;;;;;;;;;;;;;;;;;;7370834;19;836;-66
2023/01/01 06:28:43;;;;;;;;;;;;;;;;;;7370393;19;811;-65
2023/01/01 06:31:11;;;;;;;;;;;;;;;;;;7369474;19;1270;-65
2023/01/01 06:33:39;;;;;;;;;;;;;;;;;;7372650;19;854;-65
2023/01/01 06:36:07;;;;;;;;;;;;;;;;;;7374247;19;792;-65
2023/01/01 06:38:36;;;;;;;;;;;;;;;;;;7377765;19;1838;-64
2023/01/01 06:41:04;;;;;;;;;;;;;;;;;;7378186;19;1644;-65
2023/01/01 06:43:33;;;;;;;;;;;;;;;;;;7378993;19;1897;-66
2023/01/01 06:46:01;;;;;;;;;;;;;;;;;;7373226;19;1821;-66
2023/01/01 06:48:29;;;;;;;;;;;;;;;;;;7372748;19;849;-65
2023/01/01 06:50:57;;;;;;;;;;;;;;;;;;7373010;19;1322;-64
2023/01/01 06:53:25;;;;;;;;;;;;;;;;;;7374193;19;786;-65
2023/01/01 06:55:54;;;;;;;;;;;;;;;;;;7372830;19;808;-64
2023/01/01 06:58:22;;;;;;;;;;;;;;;;;;7369953;19;900;-65
2023/01/01 07:00:50;;;;;;;;;;;;;;;;;;7369414;19;1283;-65
2023/01/01 07:03:18;;;;;;;;;;;;;;;;;;7372425;19;1827;-64
2023/01/01 07:05:46;;;;;;;;;;;;;;;;;;7367621;19;1845;-65
2023/01/01 07:08:14;;;;;;;;;;;;;;;;;;7367788;19;822;-65
2023/01/01 07:10:42;;;;;;;;;;;;;;;;;;7369581;19;1353;-64
2023/01/01 07:13:11;;;;;;;;;;;;;;;;;;7369953;19;886;-65
2023/01/01 07:15:39;;;;;;;;;;;;;;;;;;7370311;19;791;-65
2023/01/01 07:18:07;;;;;;;;;;;;;;;;;;7368981;19;767;-65
2023/01/01 07:20:35;;;;;;;;;;;;;;;;;;7368926;19;1201;-65
2023/01/01 07:23:03;;;;;;;;;;;;;;;;;;7368920;19;872;-64
2023/01/01 07:25:31;;;;;;;;;;;;;;;;;;7367818;19;1851;-66
2023/01/01 07:27:59;;;;;;;;;;;;;;;;;;7369105;19;903;-66
2023/01/01 07:30:28;;;;;;;;;;;;;;;;;;7369456;19;1263;-66
2023/01/01 07:32:56;;;;;;;;;;;;;;;;;;7369944;19;1833;-65
2023/01/01 07:35:24;;;;;;;;;;;;;;;;;;7369978;19;806;-65
2023/01/01 07:37:52;;;;;;;;;;;;;;;;;;7368939;19;826;-66
2023/01/01 07:40:20;;;;;;;;;;;;;;;;;;7368686;19;1322;-65
2023/01/01 07:42:48;;;;;;;;;;;;;;;;;;7368957;19;771;-64
2023/01/01 07:45:16;;;;;;;;;;;;;;;;;;7367924;19;1839;-64
2023/01/01 07:47:44;;;;;;;;;;;;;;;;;;7368541;19;862;-64
2023/01/01 07:50:13;;;;;;;;;;;;;;;;;;7368949;19;1357;-64
2023/01/01 07:52:41;;;;;;;;;;;;;;;;;;7368867;19;800;-64
2023/01/01 07:55:09;;;;;;;;;;;;;;;;;;7371732;19;1872;-64
2023/01/01 07:57:37;;;;;;;;;;;;;;;;;;7368748;19;826;-63
2023/01/01 08:00:05;;;;;;;;;;;;;;;;;;7368493;19;1843;-63
2023/01/01 08:02:40;;;;;;;;;;;;;;;;;;7368935;19;1822;-63
2023/01/01 08:05:08;;;;;;;;;;;;;;;;;;7367499;19;1849;-64
2023/01/01 08:07:36;;;;;;;;;;;;;;;;;;7368921;19;813;-62
2023/01/01 08:10:04;;;;;;;;;;;;;;;;;;7367537;19;1301;-63
2023/01/01 08:12:33;;;;;;;;;;;;;;;;;;7368679;19;797;-63
2023/01/01 08:15:01;;;;;;;;;;;;;;;;;;7369956;19;1244;-64
2023/01/01 08:17:29;;;;;;;;;;;;;;;;;;7370641;19;2144;-64
2023/01/01 08:19:57;;;;;;;;;;;;;;;;;;7367637;19;1367;-63
2023/01/01 08:22:25;;;;;;;;;;;;;;;;;;7368628;19;712;-64
2023/01/01 08:24:53;;;;;;;;;;;;;;;;;;7367069;19;1843;-65
2023/01/01 08:27:21;;;;;;;;;;;;;;;;;;7367212;19;796;-63
2023/01/01 08:29:50;;;;;;;;;;;;;;;;;;7367185;19;1286;-64
2023/01/01 08:32:18;;;;;;;;;;;;;;;;;;7368339;19;787;-63
2023/01/01 08:34:46;;;;;;;;;;;;;;;;;;7372067;19;2030;-64
2023/01/01 08:37:14;;;;;;;;;;;;;;;;;;7367564;19;957;-63
2023/01/01 08:39:42;;;;;;;;;;;;;;;;;;7366830;19;852;-63
2023/01/01 08:42:10;;;;;;;;;;;;;;;;;;7367039;19;849;-63
2023/01/01 08:44:38;;;;;;;;;;;;;;;;;;7367177;19;1900;-62
2023/01/01 08:47:07;;;;;;;;;;;;;;;;;;7367957;19;858;-62
2023/01/01 08:49:35;;;;;;;;;;;;;;;;;;7366484;19;871;-63
2023/01/01 08:52:03;;;;;;;;;;;;;;;;;;7363960;19;1231;-64
2023/01/01 08:54:31;;;;;;;;;;;;;;;;;;7367116;19;865;-64
2023/01/01 08:56:59;;;;;;;;;;;;;;;;;;7371002;19;1351;-64
2023/01/01 08:59:27;;;;;;;;;;;;;;;;;;7366714;19;799;-64
2023/01/01 09:01:55;;;;;;;;;;;;;;;;;;7364520;19;1301;-63
2023/01/01 09:04:24;;;;;;;;;;;;;;;;;;7370100;19;1826;-65
2023/01/01 09:06:52;;;;;;;;;;;;;;;;;;7367085;19;866;-64
2023/01/01 09:09:20;;;;;;;;;;;;;;;;;;7366961;19;846;-64
2023/01/01 09:11:48;;;;;;;;;;;;;;;;;;7363956;19;1744;-65
2023/01/01 09:14:16;;;;;;;;;;;;;;;;;;7366883;19;773;-64
2023/01/01 09:16:44;;;;;;;;;;;;;;;;;;7366430;19;865;-62
2023/01/01 09:19:13;;;;;;;;;;;;;;;;;;7365973;19;889;-63
2023/01/01 09:21:41;;;;;;;;;;;;;;;;;;7364763;19;1842;-64
2023/01/01 09:24:09;;;;;;;;;;;;;;;;;;7366093;19;842;-64
2023/01/01 09:26:37;;;;;;;;;;;;;;;;;;7363449;19;1838;-64
2023/01/01 09:29:05;;;;;;;;;;;;;;;;;;7362835;19;804;-64
2023/01/01 09:31:33;;;;;;;;;;;;;;;;;;7363405;19;1305;-64
2023/01/01 09:34:01;;;;;;;;;;;;;;;;;;7368886;19;1847;-64
2023/01/01 09:36:30;;;;;;;;;;;;;;;;;;7365779;19;794;-63
2023/01/01 09:38:58;;;;;;;;;;;;;;;;;;7365159;19;871;-64
2023/01/01 09:41:26;;;;;;;;;;;;;;;;;;7363537;19;1312;-64
2023/01/01 09:43:55;;;;;;;;;;;;;;;;;;7366147;19;807;-63
2023/01/01 09:46:23;;;;;;;;;;;;;;;;;;7363580;19;1857;-64
2023/01/01 09:48:51;;;;;;;;;;;;;;;;;;7364367;19;907;-65
2023/01/01 09:51:19;;;;;;;;;;;;;;;;;;7364158;19;1282;-65
2023/01/01 09:53:47;;;;;;;;;;;;;;;;;;7365522;19;850;-64
2023/01/01 09:56:15;;;;;;;;;;;;;;;;;;7365426;19;764;-65
2023/01/01 09:58:44;;;;;;;;;;;;;;;;;;7364551;19;1992;-65
2023/01/01 10:01:12;;;;;;;;;;;;;;;;;;7363697;19;1341;-64
2023/01/01 10:03:40;;;;;;;;;;;;;;;;;;7367211;19;1895;-65
2023/01/01 10:06:08;;;;;;;;;;;;;;;;;;7363578;19;1869;-64
2023/01/01 10:08:36;;;;;;;;;;;;;;;;;;7366912;19;1771;-64
2023/01/01 10:11:04;;;;;;;;;;;;;;;;;;7367413;19;1462;-63
2023/01/01 10:13:33;;;;;;;;;;;;;;;;;;7364545;19;854;-63
2023/01/01 10:16:01;;;;;;;;;;;;;;;;;;7364806;19;752;-63
2023/01/01 10:18:29;;;;;;;;;;;;;;;;;;7363073;19;800;-63
2023/01/01 10:20:57;;;;;;;;;;;;;;;;;;7363482;19;1334;-63
2023/01/01 10:23:25;;;;;;;;;;;;;;;;;;7365113;19;795;-63
2023/01/01 10:25:54;;;;;;;;;;;;;;;;;;7364070;19;1853;-64
2023/01/01 10:28:22;;;;;;;;;;;;;;;;;;7363712;19;859;-64
2023/01/01 10:30:50;;;;;;;;;;;;;;;;;;7363553;19;1282;-64
2023/01/01 10:33:18;;;;;;;;;;;;;;;;;;7365838;19;2207;-63
2023/01/01 10:35:46;;;;;;;;;;;;;;;;;;7363737;19;861;-64
2023/01/01 10:38:14;;;;;;;;;;;;;;;;;;7363129;19;888;-63
2023/01/01 10:40:42;;;;;;;;;;;;;;;;;;7362112;19;1271;-64
2023/01/01 10:43:10;;;;;;;;;;;;;;;;;;7369218;19;810;-63
2023/01/01 10:45:39;;;;;;;;;;;;;;;;;;7370381;19;1861;-63
2023/01/01 10:48:07;;;;;;;;;;;;;;;;;;7369752;19;811;-63
2023/01/01 10:50:36;;;;;;;;;;;;;;;;;;7369932;19;1335;-64
2023/01/01 10:53:04;;;;;;;;;;;;;;;;;;7370743;19;827;-64
2023/01/01 10:55:33;;;;;;;;;;;;;;;;;;7370730;19;803;-63
2023/01/01 10:58:01;;;;;;;;;;;;;;;;;;7369349;19;1907;-64
2023/01/01 11:00:29;;;;;;;;;;;;;;;;;;7369819;19;1278;-64
2023/01/01 11:02:57;;;;;;;;;;;;;;;;;;7370011;19;778;-63
2023/01/01 11:05:25;;;;;;;;;;;;;;;;;;7371643;19;2115;-64
2023/01/01 11:07:53;;;;;;;;;;;;;;;;;;7370027;19;2225;-63
2023/01/01 11:10:21;;;;;;;;;;;;;;;;;;7371448;19;1875;-63
2023/01/01 11:12:51;;;;;;;;;;;;;;;;;;7369887;19;821;-64
2023/01/01 11:15:19;;;;;;;;;;;;;;;;;;7369038;19;762;-64
2023/01/01 11:17:47;;;;;;;;;;;;;;;;;;7369038;19;859;-64
2023/01/01 11:20:15;;;;;;;;;;;;;;;;;;7369446;19;1339;-63
2023/01/01 11:22:44;;;;;;;;;;;;;;;;;;7370106;19;775;-65
2023/01/01 11:25:12;;;;;;;;;;;;;;;;;;7369654;19;1854;-65
2023/01/01 11:27:40;;;;;;;;;;;;;;;;;;7371675;19;1909;-66
2023/01/01 11:30:08;;;;;;;;;;;;;;;;;;7364132;19;1289;-65
2023/01/01 11:32:36;;;;;;;;;;;;;;;;;;7368202;19;861;-66
2023/01/01 11:35:07;;;;;;;;;;;;;;;;;;7369394;19;811;-65
2023/01/01 11:37:35;;;;;;;;;;;;;;;;;;7369136;19;776;-65
2023/01/01 11:40:03;;;;;;;;;;;;;;;;;;7368394;19;1341;-66
2023/01/01 11:42:31;;;;;;;;;;;;;;;;;;7369032;19;813;-66
2023/01/01 11:44:59;;;;;;;;;;;;;;;;;;7369459;19;823;-65
2023/01/01 11:47:28;;;;;;;;;;;;;;;;;;7364965;19;1863;-64
2023/01/01 11:49:56;;;;;;;;;;;;;;;;;;7365988;19;1350;-65
2023/01/01 11:52:24;;;;;;;;;;;;;;;;;;7367965;19;844;-65
2023/01/01 11:54:52;;;;;;;;;;;;;;;;;;7369068;19;827;-65
2023/01/01 11:57:20;;;;;;;;;;;;;;;;;;7368425;19;808;-65
2023/01/01 11:59:48;;;;;;;;;;;;;;;;;;7367340;19;1314;-65
2023/01/01 12:02:16;;;;;;;;;;;;;;;;;;7368325;19;827;-65
2023/01/01 12:04:45;;;;;;;;;;;;;;;;;;7368591;19;854;-65
2023/01/01 12:07:13;;;;;;;;;;;;;;;;;;7366184;19;1849;-65
2023/01/01 12:09:41;;;;;;;;;;;;;;;;;;7366107;19;830;-66
2023/01/01 12:12:09;;;;;;;;;;;;;;;;;;7364853;19;1279;-66
2023/01/01 12:14:37;;;;;;;;;;;;;;;;;;7368364;19;830;-65
2023/01/01 12:17:06;;;;;;;;;;;;;;;;;;7368531;19;1629;-65
2023/01/01 12:19:35;;;;;;;;;;;;;;;;;;7370904;19;1671;-65
2023/01/01 12:22:03;;;;;;;;;;;;;;;;;;7368119;19;1649;-66
2023/01/01 12:24:31;;;;;;;;;;;;;;;;;;7367737;19;860;-65
2023/01/01 12:26:59;;;;;;;;;;;;;;;;;;7366670;19;1849;-67
2023/01/01 12:29:27;;;;;;;;;;;;;;;;;;7367039;19;787;-65
2023/01/01 12:31:55;;;;;;;;;;;;;;;;;;7364889;19;1291;-66
2023/01/01 12:34:24;;;;;;;;;;;;;;;;;;7367449;19;1750;-64
2023/01/01 12:36:52;;;;;;;;;;;;;;;;;;7371457;19;1811;-63
2023/01/01 12:39:21;;;;;;;;;;;;;;;;;;7369611;19;2106;-65
2023/01/01 12:41:49;;;;;;;;;;;;;;;;;;7365235;19;1354;-65
2023/01/01 12:44:17;;;;;;;;;;;;;;;;;;7367724;19;791;-64
2023/01/01 12:46:45;;;;;;;;;;;;;;;;;;7366666;19;1846;-65
2023/01/01 12:49:13;;;;;;;;;;;;;;;;;;7366519;19;825;-64
2023/01/01 12:51:41;;;;;;;;;;;;;;;;;;7365414;19;1274;-64
2023/01/01 12:54:09;;;;;;;;;;;;;;;;;;7367138;19;878;-63
2023/01/01 12:56:37;;;;;;;;;;;;;;;;;;7367126;19;823;-62
2023/01/01 12:59:06;;;;;;;;;;;;;;;;;;7365787;19;874;-64
2023/01/01 13:01:34;;;;;;;;;;;;;;;;;;7367759;19;1910;-63
2023/01/01 13:04:02;;;;;;;;;;;;;;;;;;7365460;19;1011;-64
2023/01/01 13:06:30;;;;;;;;;;;;;;;;;;7366227;19;1863;-64
2023/01/01 13:08:58;;;;;;;;;;;;;;;;;;7365866;19;1891;-64
2023/01/01 13:11:27;;;;;;;;;;;;;;;;;;7364276;19;1275;-64
2023/01/01 13:13:55;;;;;;;;;;;;;;;;;;7366663;19;811;-64
2023/01/01 13:16:23;;;;;;;;;;;;;;;;;;7366970;19;768;-64
2023/01/01 13:18:51;;;;;;;;;;;;;;;;;;7365847;19;799;-64
2023/01/01 13:21:19;;;;;;;;;;;;;;;;;;7363962;19;1333;-64
2023/01/01 13:23:48;;;;;;;;;;;;;;;;;;7366653;19;789;-63
2023/01/01 13:26:16;;;;;;;;;;;;;;;;;;7365411;19;1822;-63
2023/01/01 13:28:44;;;;;;;;;;;;;;;;;;7365457;19;794;-65
2023/01/01 13:31:12;;;;;;;;;;;;;;;;;;7363905;19;1290;-65
2023/01/01 13:33:40;;;;;;;;;;;;;;;;;;7365797;19;871;-64
2023/01/01 13:36:10;;;;;;;;;;;;;;;;;;7366630;19;831;-64
2023/01/01 13:38:38;;;;;;;;;;;;;;;;;;7365728;19;1797;-64
2023/01/01 13:41:07;;;;;;;;;;;;;;;;;;7368121;19;2130;-63
2023/01/01 13:43:35;;;;;;;;;;;;;;;;;;7364757;19;863;-63
2023/01/01 13:46:03;;;;;;;;;;;;;;;;;;7367887;19;1916;-62
2023/01/01 13:48:31;;;;;;;;;;;;;;;;;;7364472;19;817;-63
2023/01/01 13:50:59;;;;;;;;;;;;;;;;;;7363517;19;1275;-64
2023/01/01 13:53:27;;;;;;;;;;;;;;;;;;7368352;19;1885;-64
2023/01/01 13:55:55;;;;;;;;;;;;;;;;;;7365934;19;818;-65
2023/01/01 13:58:24;;;;;;;;;;;;;;;;;;7364190;19;853;-65
2023/01/01 14:00:52;;;;;;;;;;;;;;;;;;7364321;19;1421;-65
2023/01/01 14:03:20;;;;;;;;;;;;;;;;;;7366053;19;774;-66
2023/01/01 14:05:48;;;;;;;;;;;;;;;;;;7365586;19;786;-66
2023/01/01 14:08:17;;;;;;;;;;;;;;;;;;7362369;19;1846;-66
2023/01/01 14:10:45;;;;;;;;;;;;;;;;;;7364600;19;1287;-64
2023/01/01 14:13:13;;;;;;;;;;;;;;;;;;7365026;19;796;-63
2023/01/01 14:15:41;;;;;;;;;;;;;;;;;;7367762;19;2174;-64
2023/01/01 14:18:09;;;;;;;;;;;;;;;;;;7371183;19;798;-65
2023/01/01 14:20:37;;;;;;;;;;;;;;;;;;7371006;19;1267;-64
2023/01/01 14:23:05;;;;;;;;;;;;;;;;;;7371822;19;810;-65
2023/01/01 14:25:33;;;;;;;;;;;;;;;;;;7370298;19;893;-65
2023/01/01 14:28:02;;;;;;;;;;;;;;;;;;7369529;19;1844;-64
2023/01/01 14:30:30;;;;;;;;;;;;;;;;;;7373607;19;1872;-66
2023/01/01 14:32:58;;;;;;;;;;;;;;;;;;7374984;19;1865;-64
2023/01/01 14:35:26;;;;;;;;;;;;;;;;;;7372576;19;863;-64
2023/01/01 14:37:54;;;;;;;;;;;;;;;;;;7371410;19;1846;-63
2023/01/01 14:40:26;;;;;;;;;;;;;;;;;;7370635;19;1279;-64
2023/01/01 14:42:54;;;;;;;;;;;;;;;;;;7373723;19;1851;-63
2023/01/01 14:45:23;;;;;;;;;;;;;;;;;;7371469;19;858;-63
2023/01/01 14:47:51;;;;;;;;;;;;;;;;;;7368582;19;1871;-63
2023/01/01 14:50:19;;;;;;;;;;;;;;;;;;7370256;19;1302;-64
2023/01/01 14:52:47;;;;;;;;;;;;;;;;;;7369682;19;1120;-64
2023/01/01 14:55:15;;;;;;;;;;;;;;;;;;7373323;19;1334;-65
2023/01/01 14:57:45;;;;;;;;;;;;;;;;;;7369339;19;862;-65
2023/01/01 15:00:14;;;;;;;;;;;;;;;;;;7371895;19;1860;-65
2023/01/01 15:02:42;;;;;;;;;;;;;;;;;;7373334;19;973;-64
2023/01/01 15:05:10;;;;;;;;;;;;;;;;;;7369994;19;797;-64
2023/01/01 15:07:38;;;;;;;;;;;;;;;;;;7368265;19;1865;-64
2023/01/01 15:10:06;;;;;;;;;;;;;;;;;;7369972;19;1361;-65
2023/01/01 15:12:36;;;;;;;;;;;;;;;;;;7370561;19;829;-65
2023/01/01 15:15:04;;;;;;;;;;;;;;;;;;7369899;19;850;-65
2023/01/01 15:17:33;;;;;;;;;;;;;;;;;;7370236;19;850;-64
2023/01/01 15:20:01;;;;;;;;;;;;;;;;;;7369651;19;1279;-65
2023/01/01 15:22:30;;;;;;;;;;;;;;;;;;7370565;19;834;-65
2023/01/01 15:24:58;;;;;;;;;;;;;;;;;;7369683;19;776;-66
2023/01/01 15:27:26;;;;;;;;;;;;;;;;;;7366522;19;1834;-64
2023/01/01 15:29:55;;;;;;;;;;;;;;;;;;7368902;19;1301;-65
2023/01/01 15:32:23;;;;;;;;;;;;;;;;;;7373148;19;1871;-66
2023/01/01 15:34:52;;;;;;;;;;;;;;;;;;7370165;19;1872;-65
2023/01/01 15:37:20;;;;;;;;;;;;;;;;;;7372959;19;1889;-65
2023/01/01 15:39:48;;;;;;;;;;;;;;;;;;7369783;19;1984;-65
2023/01/01 15:42:16;;;;;;;;;;;;;;;;;;7369338;19;1865;-63
2023/01/01 15:44:44;;;;;;;;;;;;;;;;;;7372876;19;1872;-63
2023/01/01 15:47:12;;;;;;;;;;;;;;;;;;7368207;19;1857;-63
2023/01/01 15:49:40;;;;;;;;;;;;;;;;;;7370962;19;1671;-64
2023/01/01 15:52:09;;;;;;;;;;;;;;;;;;7368405;19;1756;-64
2023/01/01 15:54:37;;;;;;;;;;;;;;;;;;7369532;19;768;-65
2023/01/01 15:57:06;;;;;;;;;;;;;;;;;;7368788;19;791;-64
2023/01/01 15:59:34;;;;;;;;;;;;;;;;;;7368037;19;873;-64
2023/01/01 16:02:02;;;;;;;;;;;;;;;;;;7370034;19;1655;-67
2023/01/01 16:04:30;;;;;;;;;;;;;;;;;;7379284;19;1904;-66
2023/01/01 16:06:58;;;;;;;;;;;;;;;;;;7374256;19;1807;-67
2023/01/01 16:09:26;;;;;;;;;;;;;;;;;;7377510;19;1836;-66
2023/01/01 16:11:55;;;;;;;;;;;;;;;;;;7372374;19;1329;-66
2023/01/01 16:14:23;;;;;;;;;;;;;;;;;;7368978;19;785;-66
2023/01/01 16:16:51;;;;;;;;;;;;;;;;;;7368453;19;815;-65
2023/01/01 16:19:20;;;;;;;;;;;;;;;;;;7367152;19;770;-66
2023/01/01 16:21:48;;;;;;;;;;;;;;;;;;7368805;19;1868;-67
2023/01/01 16:24:16;;;;;;;;;;;;;;;;;;7367777;19;870;-66
2023/01/01 16:26:44;;;;;;;;;;;;;;;;;;7366567;19;1844;-66
2023/01/01 16:29:15;;;;;;;;;;;;;;;;;;7364129;19;1011;-66
2023/01/01 16:31:43;;;;;;;;;;;;;;;;;;7366088;19;1333;-67
2023/01/01 16:34:11;;;;;;;;;;;;;;;;;;7368776;19;835;-65
2023/01/01 16:36:40;;;;;;;;;;;;;;;;;;7366747;19;1010;-65
2023/01/01 16:39:08;;;;;;;;;;;;;;;;;;7367007;19;845;-65
2023/01/01 16:41:36;;;;;;;;;;;;;;;;;;7365323;19;1714;-65
2023/01/01 16:44:04;;;;;;;;;;;;;;;;;;7367670;19;852;-66
2023/01/01 16:46:32;;;;;;;;;;;;;;;;;;7368289;19;858;-66
2023/01/01 16:49:00;;;;;;;;;;;;;;;;;;7363597;19;1849;-66
2023/01/01 16:51:28;;;;;;;;;;;;;;;;;;7364263;19;1278;-66
2023/01/01 16:53:59;;;;;;;;;;;;;;;;;;7367527;19;909;-66
2023/01/01 16:56:27;;;;;;;;;;;;;;;;;;7367897;19;803;-67
2023/01/01 16:58:55;;;;;;;;;;;;;;;;;;7366661;19;746;-66
2023/01/01 17:01:23;;;;;;;;;;;;;;;;;;7365736;19;1207;-67
2023/01/01 17:03:52;;;;;;;;;;;;;;;;;;7367454;19;804;-67
2023/01/01 17:06:20;;;;;;;;;;;;;;;;;;7366621;19;762;-66
2023/01/01 17:08:48;;;;;;;;;;;;;;;;;;7363427;19;1857;-67
2023/01/01 17:11:16;;;;;;;;;;;;;;;;;;7364922;19;1258;-67
2023/01/01 17:13:44;;;;;;;;;;;;;;;;;;7366919;19;862;-66
2023/01/01 17:16:13;;;;;;;;;;;;;;;;;;7370702;19;794;-67
2023/01/01 17:18:41;;;;;;;;;;;;;;;;;;7365634;19;790;-66
2023/01/01 17:21:09;;;;;;;;;;;;;;;;;;7364701;19;1356;-66
2023/01/01 17:23:38;;;;;;;;;;;;;;;;;;7366933;19;847;-66